createdAt,value
2022-08-26T00:00:23.589Z,80.00
2022-08-26T00:03:20.062Z,82.00
2022-08-26T00:06:15.254Z,84.30
2022-08-26T00:09:16.762Z,85.80
2022-08-26T00:12:12.410Z,88.10
2022-08-26T00:15:10.236Z,88.70
2022-08-26T00:18:04.914Z,90.30
2022-08-26T00:21:16.684Z,91.60
2022-08-26T00:24:11.358Z,91.40
2022-08-26T00:27:06.355Z,91.20
2022-08-26T00:30:01.883Z,91.50
2022-08-26T00:32:57.148Z,91.90
2022-08-26T00:35:51.875Z,92.00
2022-08-26T00:38:47.490Z,91.20
2022-08-26T00:41:43.072Z,89.70
2022-08-26T00:44:37.688Z,90.10
2022-08-26T00:47:54.761Z,88.80
2022-08-26T00:51:04.017Z,89.80
2022-08-26T00:54:07.524Z,89.50
2022-08-26T00:57:16.205Z,89.90
2022-08-26T01:00:21.458Z,90.10
2022-08-26T01:03:18.593Z,89.00
2022-08-26T01:06:15.580Z,86.70
2022-08-26T01:09:10.617Z,86.70
2022-08-26T01:12:05.780Z,86.20
2022-08-26T01:15:00.870Z,87.80
2022-08-26T01:17:55.966Z,84.40
2022-08-26T01:20:57.729Z,82.70
2022-08-26T01:23:57.362Z,81.30
2022-08-26T01:26:52.688Z,82.30
2022-08-26T01:29:50.111Z,81.70
2022-08-26T01:32:46.475Z,76.10
2022-08-26T01:35:41.659Z,74.80
2022-08-26T01:38:36.159Z,75.10
2022-08-26T01:41:31.096Z,72.40
2022-08-26T01:44:28.829Z,72.00
2022-08-26T01:47:25.674Z,70.80
2022-08-26T01:50:28.171Z,72.50
2022-08-26T01:53:26.971Z,72.40
2022-08-26T01:56:25.030Z,69.50
2022-08-26T01:59:28.428Z,69.50
2022-08-26T02:02:23.116Z,69.00
2022-08-26T02:05:23.468Z,67.70
2022-08-26T02:08:24.680Z,69.60
2022-08-26T02:11:19.717Z,67.70
2022-08-26T02:14:22.322Z,66.90
2022-08-26T02:17:18.430Z,70.10
2022-08-26T02:20:19.529Z,68.50
2022-08-26T02:23:14.104Z,67.70
2022-08-26T02:26:16.493Z,68.70
2022-08-26T02:29:23.374Z,67.90
2022-08-26T02:32:18.625Z,69.70
2022-08-26T02:35:18.335Z,70.40
2022-08-26T02:38:14.785Z,69.70
2022-08-26T02:41:09.965Z,69.20
2022-08-26T02:44:05.027Z,67.80
2022-08-26T02:47:00.084Z,68.80
2022-08-26T02:49:54.929Z,67.30
2022-08-26T02:52:49.712Z,68.10
2022-08-26T02:55:45.441Z,68.30
2022-08-26T02:58:42.973Z,68.30
2022-08-26T03:01:38.459Z,69.70
2022-08-26T03:04:33.571Z,68.00
2022-08-26T03:07:28.374Z,67.00
2022-08-26T03:10:23.499Z,68.40
2022-08-26T03:13:20.663Z,68.90
2022-08-26T03:16:15.618Z,69.30
2022-08-26T03:19:11.640Z,69.40
2022-08-26T03:22:06.847Z,70.10
2022-08-26T03:25:01.352Z,68.10
2022-08-26T03:27:57.478Z,68.20
2022-08-26T03:30:54.796Z,71.80
2022-08-26T03:33:49.555Z,74.50
2022-08-26T03:36:47.140Z,76.50
2022-08-26T03:39:42.559Z,77.80
2022-08-26T03:42:39.280Z,77.80
2022-08-26T03:45:34.669Z,77.90
2022-08-26T03:48:29.700Z,78.10
2022-08-26T03:51:25.021Z,77.70
2022-08-26T03:54:20.690Z,77.80
2022-08-26T03:57:15.281Z,78.60
2022-08-26T04:00:18.472Z,79.10
2022-08-26T04:03:18.077Z,79.60
2022-08-26T04:06:13.970Z,79.80
2022-08-26T04:09:20.441Z,80.40
2022-08-26T04:12:15.360Z,80.90
2022-08-26T04:15:14.939Z,80.90
2022-08-26T04:18:09.461Z,81.50
2022-08-26T04:21:03.995Z,81.70
2022-08-26T04:24:03.518Z,82.10
2022-08-26T04:26:58.591Z,81.80
2022-08-26T04:29:55.337Z,81.90
2022-08-26T04:32:50.598Z,81.70
2022-08-26T04:35:45.368Z,82.00
2022-08-26T04:38:42.177Z,82.60
2022-08-26T04:41:38.494Z,82.00
2022-08-26T04:44:37.912Z,82.50
2022-08-26T04:47:34.275Z,82.60
2022-08-26T04:50:29.257Z,82.80
2022-08-26T04:53:24.489Z,82.70
2022-08-26T04:56:19.668Z,82.60
2022-08-26T04:59:18.180Z,82.10
2022-08-26T05:02:13.167Z,82.40
2022-08-26T05:05:08.880Z,82.30
2022-08-26T05:08:03.534Z,82.00
2022-08-26T05:10:58.174Z,81.10
2022-08-26T05:13:52.877Z,81.40
2022-08-26T05:16:48.079Z,81.60
2022-08-26T05:19:43.982Z,80.20
2022-08-26T05:22:38.501Z,81.00
2022-08-26T05:25:33.743Z,80.10
2022-08-26T05:28:30.363Z,78.90
2022-08-26T05:31:34.499Z,78.40
2022-08-26T05:34:30.191Z,78.00
2022-08-26T05:37:25.451Z,78.60
2022-08-26T05:40:20.425Z,79.80
2022-08-26T05:43:15.921Z,79.60
2022-08-26T05:46:12.359Z,78.70
2022-08-26T05:49:12.205Z,77.60
2022-08-26T05:52:07.810Z,77.90
2022-08-26T05:55:05.655Z,77.00
2022-08-26T05:58:01.064Z,76.90
2022-08-26T06:01:10.172Z,76.60
2022-08-26T06:04:06.246Z,77.00
2022-08-26T06:07:01.424Z,76.80
2022-08-26T06:10:15.160Z,77.00
2022-08-26T06:13:12.369Z,77.20
2022-08-26T06:16:11.229Z,77.00
2022-08-26T06:19:10.794Z,77.40
2022-08-26T06:22:25.737Z,77.40
2022-08-26T06:25:38.597Z,77.30
2022-08-26T06:28:34.074Z,77.50
2022-08-26T06:31:31.840Z,77.90
2022-08-26T06:34:31.957Z,78.00
2022-08-26T06:37:26.577Z,77.40
2022-08-26T06:40:23.903Z,77.50
2022-08-26T06:43:21.108Z,77.70
2022-08-26T06:46:18.526Z,77.90
2022-08-26T06:49:14.152Z,77.10
2022-08-26T06:52:12.504Z,76.70
2022-08-26T06:55:07.726Z,76.60
2022-08-26T06:58:03.477Z,76.10
2022-08-26T07:01:03.073Z,76.50
2022-08-26T07:04:10.440Z,75.40
2022-08-26T07:07:05.502Z,75.30
2022-08-26T07:10:03.831Z,75.90
2022-08-26T07:12:58.605Z,76.20
2022-08-26T07:15:53.656Z,76.10
2022-08-26T07:18:54.250Z,76.40
2022-08-26T07:21:48.919Z,76.80
2022-08-26T07:24:44.093Z,76.20
2022-08-26T07:27:40.206Z,76.10
2022-08-26T07:30:35.481Z,76.30
2022-08-26T07:33:30.963Z,76.70
2022-08-26T07:36:26.508Z,76.30
2022-08-26T07:39:21.662Z,76.50
2022-08-26T07:42:18.573Z,76.20
2022-08-26T07:45:13.685Z,76.70
2022-08-26T07:48:08.912Z,76.90
2022-08-26T07:51:05.244Z,77.10
2022-08-26T07:54:00.328Z,76.90
2022-08-26T07:56:55.859Z,77.00
2022-08-26T07:59:50.866Z,77.20
2022-08-26T08:02:46.413Z,77.50
2022-08-26T08:05:41.706Z,77.50
2022-08-26T08:08:36.744Z,77.70
2022-08-26T08:11:32.598Z,78.10
2022-08-26T08:14:27.385Z,78.30
2022-08-26T08:17:22.913Z,78.60
2022-08-26T08:20:17.751Z,78.70
2022-08-26T08:23:12.529Z,78.90
2022-08-26T08:26:10.407Z,78.80
2022-08-26T08:29:05.263Z,79.60
2022-08-26T08:32:00.868Z,79.90
2022-08-26T08:34:57.610Z,80.00
2022-08-26T08:37:55.892Z,80.30
2022-08-26T08:40:52.559Z,80.70
2022-08-26T08:43:49.389Z,80.70
2022-08-26T08:46:45.496Z,80.90
2022-08-26T08:49:40.235Z,80.80
2022-08-26T08:52:37.769Z,81.00
2022-08-26T08:55:56.936Z,81.10
2022-08-26T08:58:58.955Z,81.40
2022-08-26T09:02:36.227Z,81.50
2022-08-26T09:05:48.714Z,82.00
2022-08-26T09:08:43.650Z,82.20
2022-08-26T09:11:38.839Z,82.50
2022-08-26T09:14:33.659Z,82.70
2022-08-26T09:17:32.552Z,83.10
2022-08-26T09:20:57.803Z,83.50
2022-08-26T09:23:56.977Z,84.10
2022-08-26T09:26:53.850Z,84.80
2022-08-26T09:29:50.375Z,85.20
2022-08-26T09:32:55.880Z,85.70
2022-08-26T09:35:53.517Z,86.20
2022-08-26T09:38:48.065Z,86.50
2022-08-26T09:41:42.610Z,86.90
2022-08-26T09:45:00.618Z,87.30
2022-08-26T09:47:57.421Z,87.90
2022-08-26T09:51:03.773Z,88.20
2022-08-26T09:54:01.951Z,88.60
2022-08-26T09:57:14.864Z,88.80
2022-08-26T10:00:32.720Z,89.30
2022-08-26T10:03:31.745Z,89.70
2022-08-26T10:06:29.667Z,89.90
2022-08-26T10:09:25.424Z,90.10
2022-08-26T10:12:24.688Z,90.10
2022-08-26T10:15:22.701Z,90.30
2022-08-26T10:18:28.771Z,90.50
2022-08-26T10:21:40.769Z,90.70
2022-08-26T10:24:51.886Z,91.00
2022-08-26T10:28:13.820Z,91.20
2022-08-26T10:31:38.198Z,91.30
2022-08-26T10:34:36.037Z,91.40
2022-08-26T10:37:55.427Z,91.50
2022-08-26T10:41:09.997Z,91.40
2022-08-26T10:44:08.165Z,91.50
2022-08-26T10:47:11.620Z,91.50
2022-08-26T10:50:07.905Z,91.70
2022-08-26T10:53:02.792Z,91.90
2022-08-26T10:56:29.747Z,92.00
2022-08-26T10:59:50.294Z,92.00
2022-08-26T11:02:52.704Z,92.20
2022-08-26T11:05:47.343Z,91.90
2022-08-26T11:08:54.836Z,91.90
2022-08-26T11:11:51.360Z,91.70
2022-08-26T11:14:58.476Z,91.90
2022-08-26T11:17:53.826Z,91.90
2022-08-26T11:20:49.998Z,92.00
2022-08-26T11:23:50.823Z,92.10
2022-08-26T11:26:56.041Z,92.10
2022-08-26T11:30:05.684Z,92.10
2022-08-26T11:33:02.073Z,92.00
2022-08-26T11:35:58.272Z,92.20
2022-08-26T11:38:53.499Z,92.30
2022-08-26T11:41:52.928Z,92.10
2022-08-26T11:44:49.176Z,91.90
2022-08-26T11:47:44.468Z,91.40
2022-08-26T11:50:41.220Z,91.20
2022-08-26T11:53:42.031Z,91.00
2022-08-26T11:56:39.389Z,90.90
2022-08-26T11:59:40.179Z,90.80
2022-08-26T12:02:35.827Z,90.30
2022-08-26T12:05:38.213Z,90.00
2022-08-26T12:08:35.704Z,90.10
2022-08-26T12:11:38.161Z,90.00
2022-08-26T12:14:33.000Z,89.20
2022-08-26T12:17:31.254Z,89.10
2022-08-26T12:20:47.108Z,88.80
2022-08-26T12:23:46.907Z,88.90
2022-08-26T12:26:42.004Z,89.10
2022-08-26T12:29:36.689Z,89.10
2022-08-26T12:32:34.932Z,87.90
2022-08-26T12:35:30.792Z,88.00
2022-08-26T12:38:28.971Z,88.50
2022-08-26T12:41:48.390Z,87.60
2022-08-26T12:44:53.628Z,87.80
2022-08-26T12:47:49.045Z,87.60
2022-08-26T12:50:53.680Z,87.90
2022-08-26T12:53:48.304Z,88.00
2022-08-26T12:56:42.914Z,88.10
2022-08-26T12:59:37.595Z,87.80
2022-08-26T13:02:40.906Z,87.90
2022-08-26T13:05:39.177Z,87.50
2022-08-26T13:08:35.039Z,87.00
2022-08-26T13:11:54.673Z,87.50
2022-08-26T13:14:49.252Z,87.30
2022-08-26T13:17:43.868Z,86.30
2022-08-26T13:20:42.918Z,86.70
2022-08-26T13:23:41.936Z,86.40
2022-08-26T13:26:37.301Z,86.90
2022-08-26T13:29:31.892Z,86.40
2022-08-26T13:32:27.619Z,87.00
2022-08-26T13:35:22.378Z,86.50
2022-08-26T13:37:57.609Z,86.50
2022-08-26T13:40:34.594Z,86.20
2022-08-26T13:43:30.068Z,85.90
2022-08-26T13:46:24.661Z,85.50
2022-08-26T13:49:19.609Z,85.50
2022-08-26T13:52:14.588Z,85.30
2022-08-26T13:55:09.881Z,85.30
2022-08-26T13:58:04.672Z,84.80
2022-08-26T14:01:00.253Z,84.80
2022-08-26T14:03:55.349Z,84.50
2022-08-26T14:06:49.943Z,84.70
2022-08-26T14:09:44.460Z,85.00
2022-08-26T14:12:39.057Z,84.80
2022-08-26T14:15:39.024Z,85.00
2022-08-26T14:18:42.213Z,85.10
2022-08-26T14:21:40.678Z,85.50
2022-08-26T14:24:35.249Z,85.80
2022-08-26T14:27:29.841Z,86.20
2022-08-26T14:30:24.498Z,86.20
2022-08-26T14:33:21.808Z,86.20
2022-08-26T14:36:33.199Z,86.20
2022-08-26T14:39:27.778Z,86.30
2022-08-26T14:42:32.064Z,86.30
2022-08-26T14:45:29.521Z,86.30
2022-08-26T14:48:24.179Z,86.20
2022-08-26T14:51:18.980Z,86.30
2022-08-26T14:54:14.705Z,86.10
2022-08-26T14:57:12.918Z,86.00
2022-08-26T15:00:08.113Z,85.70
2022-08-26T15:03:02.740Z,85.00
2022-08-26T15:05:57.400Z,84.80
2022-08-26T15:08:52.109Z,85.20
2022-08-26T15:11:47.751Z,85.40
2022-08-26T15:14:42.468Z,84.60
2022-08-26T15:17:37.256Z,84.60
2022-08-26T15:23:26.544Z,82.50
2022-08-26T15:26:22.785Z,81.10
2022-08-26T15:29:17.491Z,81.20
2022-08-26T15:32:12.207Z,80.70
2022-08-26T15:35:09.267Z,80.80
2022-08-26T15:38:04.048Z,80.20
2022-08-26T15:41:02.863Z,79.60
2022-08-26T15:43:57.952Z,79.80
2022-08-26T15:46:57.935Z,79.10
2022-08-26T15:49:53.238Z,79.40
2022-08-26T15:52:49.141Z,79.60
2022-08-26T15:55:43.669Z,79.20
2022-08-26T15:58:38.311Z,79.00
2022-08-26T16:01:33.367Z,79.40
2022-08-26T16:04:28.399Z,78.80
2022-08-26T16:07:24.021Z,79.20
2022-08-26T16:10:19.897Z,79.20
2022-08-26T16:13:15.133Z,78.90
2022-08-26T16:16:10.808Z,79.10
2022-08-26T16:19:07.650Z,79.40
2022-08-26T16:22:02.356Z,79.30
2022-08-26T16:25:00.824Z,79.70
2022-08-26T16:27:55.876Z,80.00
2022-08-26T16:30:51.010Z,79.70
2022-08-26T16:33:46.174Z,80.00
2022-08-26T16:36:41.677Z,79.30
2022-08-26T16:39:44.834Z,79.60
2022-08-26T16:42:40.562Z,79.70
2022-08-26T16:45:38.040Z,80.00
2022-08-26T16:48:39.509Z,80.10
2022-08-26T16:51:37.628Z,80.10
2022-08-26T16:54:33.010Z,80.40
2022-08-26T16:57:27.533Z,80.80
2022-08-26T17:00:28.831Z,80.80
2022-08-26T17:03:23.524Z,80.40
2022-08-26T17:06:18.436Z,80.00
2022-08-26T17:09:13.356Z,80.50
2022-08-26T17:12:08.219Z,80.70
2022-08-26T17:15:02.777Z,80.60
2022-08-26T17:17:58.024Z,80.30
2022-08-26T17:20:53.555Z,80.50
2022-08-26T17:23:48.087Z,80.70
2022-08-26T17:26:48.402Z,80.60
2022-08-26T17:29:48.013Z,80.70
2022-08-26T17:32:44.076Z,80.60
2022-08-26T17:35:39.702Z,80.80
2022-08-26T17:38:34.277Z,80.80
2022-08-26T17:41:29.377Z,80.70
2022-08-26T17:44:23.924Z,80.50
2022-08-26T17:47:18.507Z,80.60
2022-08-26T17:50:16.634Z,80.60
2022-08-26T17:53:12.639Z,80.90
2022-08-26T17:56:17.109Z,80.80
2022-08-26T17:59:13.170Z,80.80
2022-08-26T18:02:07.770Z,80.80
2022-08-26T18:05:03.249Z,80.80
2022-08-26T18:07:58.058Z,80.90
2022-08-26T18:10:52.924Z,81.10
2022-08-26T18:13:49.180Z,81.00
2022-08-26T18:16:43.702Z,81.00
2022-08-26T18:19:38.710Z,80.70
2022-08-26T18:22:33.232Z,80.70
2022-08-26T18:25:28.183Z,80.80
2022-08-26T18:28:22.740Z,80.60
2022-08-26T18:31:17.747Z,80.30
2022-08-26T18:34:17.323Z,80.70
2022-08-26T18:40:15.535Z,80.90
2022-08-26T18:43:10.549Z,80.90
2022-08-26T18:46:10.652Z,80.80
2022-08-26T18:49:05.440Z,81.50
2022-08-26T18:52:00.896Z,81.00
2022-08-26T18:54:58.300Z,81.10
2022-08-26T18:57:52.839Z,81.20
2022-08-26T19:00:47.786Z,81.70
2022-08-26T19:03:42.343Z,81.30
2022-08-26T19:06:38.192Z,81.40
2022-08-26T19:09:33.118Z,81.40
2022-08-26T19:12:28.134Z,81.30
2022-08-26T19:15:22.677Z,81.20
2022-08-26T19:18:19.037Z,80.80
2022-08-26T19:21:13.959Z,80.90
2022-08-26T19:24:16.465Z,80.60
2022-08-26T19:27:14.701Z,80.60
2022-08-26T19:30:11.318Z,80.20
2022-08-26T19:33:06.567Z,79.60
2022-08-26T19:36:03.746Z,79.10
2022-08-26T19:39:01.556Z,78.60
2022-08-26T19:41:56.421Z,78.90
2022-08-26T19:45:11.034Z,78.60
2022-08-26T19:48:20.439Z,78.90
2022-08-26T19:51:26.566Z,78.80
2022-08-26T19:54:23.866Z,78.50
2022-08-26T19:57:18.086Z,78.80
2022-08-26T20:00:16.195Z,78.10
2022-08-26T20:03:15.590Z,77.90
2022-08-26T20:06:12.912Z,77.50
2022-08-26T20:09:07.496Z,77.60
2022-08-26T20:12:02.602Z,77.70
2022-08-26T20:14:58.004Z,77.00
2022-08-26T20:17:52.920Z,77.30
2022-08-26T20:21:05.556Z,77.10
2022-08-26T20:24:04.570Z,77.50
2022-08-26T20:26:59.422Z,77.40
2022-08-26T20:29:54.103Z,77.50
2022-08-26T20:32:49.262Z,77.70
2022-08-26T20:35:44.222Z,77.70
2022-08-26T20:38:39.060Z,77.90
2022-08-26T20:41:34.268Z,78.00
2022-08-26T20:44:29.599Z,78.20
2022-08-26T20:47:24.514Z,78.10
2022-08-26T20:50:19.060Z,78.70
2022-08-26T20:53:14.496Z,77.40
2022-08-26T20:56:12.047Z,77.70
2022-08-26T20:59:08.389Z,77.50
2022-08-26T21:02:02.946Z,77.50
2022-08-26T21:04:57.670Z,77.30
2022-08-26T21:07:52.705Z,76.70
2022-08-26T21:10:47.872Z,77.30
2022-08-26T21:14:03.845Z,77.10
2022-08-26T21:16:57.707Z,77.20
2022-08-26T21:19:52.453Z,78.00
2022-08-26T21:22:47.037Z,77.30
2022-08-26T21:25:42.555Z,78.30
2022-08-26T21:28:38.417Z,77.80
2022-08-26T21:31:33.190Z,77.90
2022-08-26T21:34:28.102Z,77.90
2022-08-26T21:37:23.739Z,78.40
2022-08-26T21:40:18.469Z,78.90
2022-08-26T21:43:14.186Z,79.10
2022-08-26T21:46:26.390Z,79.60
2022-08-26T21:49:20.895Z,79.70
2022-08-26T21:52:20.194Z,79.60
2022-08-26T21:55:14.795Z,79.60
2022-08-26T21:58:10.058Z,79.60
2022-08-26T22:01:04.771Z,79.20
2022-08-26T22:03:59.479Z,78.90
2022-08-26T22:06:56.590Z,77.90
2022-08-26T22:09:51.488Z,78.00
2022-08-26T22:12:46.028Z,77.70
2022-08-26T22:15:42.023Z,77.40
2022-08-26T22:18:37.905Z,77.10
2022-08-26T22:21:33.380Z,76.60
2022-08-26T22:24:28.810Z,76.80
2022-08-26T22:27:24.428Z,77.10
2022-08-26T22:30:20.961Z,76.70
2022-08-26T22:33:16.604Z,75.70
2022-08-26T22:36:19.316Z,76.00
2022-08-26T22:39:20.202Z,76.60
2022-08-26T22:42:14.737Z,75.50
2022-08-26T22:45:11.927Z,75.40
2022-08-26T22:48:06.756Z,73.30
2022-08-26T22:51:01.377Z,74.20
2022-08-26T22:53:55.948Z,73.70
2022-08-26T22:56:50.502Z,73.30
2022-08-26T22:59:45.073Z,73.90
2022-08-26T23:02:39.743Z,73.50
2022-08-26T23:05:34.717Z,73.50
2022-08-26T23:08:29.775Z,72.90
2022-08-26T23:11:24.362Z,73.30
2022-08-26T23:14:20.378Z,72.70
2022-08-26T23:17:15.666Z,73.30
2022-08-26T23:20:14.177Z,73.40
2022-08-26T23:23:09.161Z,73.30
2022-08-26T23:26:06.232Z,73.50
2022-08-26T23:29:00.327Z,73.60
2022-08-26T23:31:55.145Z,74.00
2022-08-26T23:34:59.973Z,74.40
2022-08-26T23:37:55.329Z,74.50
2022-08-26T23:40:53.406Z,74.60
2022-08-26T23:43:48.954Z,74.90
2022-08-26T23:46:43.508Z,75.00
2022-08-26T23:49:38.696Z,75.10
2022-08-26T23:52:51.271Z,74.60
2022-08-26T23:55:45.965Z,74.90
2022-08-26T23:58:40.609Z,73.80
